Time;durP1;ratioP1;P1;durP2;ratioP2;P2;SDS_P1;SDS_P2;PMS_P1;PMS_P2;Temp;Humidity;BMP_temperature;BMP_pressure;BME280_temperature;BME280_humidity;BME280_pressure;Samples;Min_cycle;Max_cycle;Signal;HPM_P1;HPM_P2
2021/12/15 00:01:40;;;;;;;34.50;17.98;;;;;;;8.34;100.00;102845.00;5095265;28;20036;-67
2021/12/15 00:04:06;;;;;;;40.50;18.77;;;;;;;8.34;100.00;102837.03;5077003;28;20143;-67
2021/12/15 00:06:32;;;;;;;33.45;15.55;;;;;;;8.34;100.00;102837.03;5095181;28;20514;-67
2021/12/15 00:08:59;;;;;;;36.10;17.75;;;;;;;8.33;100.00;102835.34;5095088;28;20463;-67
2021/12/15 00:11:36;;;;;;;33.90;15.20;;;;;;;8.30;100.00;102830.28;5094913;28;20103;-67
2021/12/15 00:14:06;;;;;;;35.40;19.38;;;;;;;8.30;100.00;102832.94;5094899;28;20035;-67
2021/12/15 00:16:32;;;;;;;38.53;19.80;;;;;;;8.26;100.00;102826.22;5094722;28;20028;-67
2021/12/15 00:18:57;;;;;;;33.47;16.95;;;;;;;8.28;100.00;102826.09;5094764;28;20020;-67
2021/12/15 00:21:23;;;;;;;33.78;16.67;;;;;;;8.26;100.00;102828.03;5094877;28;20024;-66
2021/12/15 00:23:49;;;;;;;31.40;17.15;;;;;;;8.24;100.00;102824.66;5094773;28;20035;-67
2021/12/15 00:26:16;;;;;;;38.13;18.67;;;;;;;8.23;100.00;102823.00;5094858;28;20039;-66
2021/12/15 00:28:43;;;;;;;34.97;17.92;;;;;;;8.20;100.00;102820.56;5094689;28;20027;-67
2021/12/15 00:31:08;;;;;;;37.30;19.23;;;;;;;8.22;100.00;102830.09;5094856;28;20559;-67
2021/12/15 00:33:36;;;;;;;34.65;17.30;;;;;;;8.22;100.00;102829.25;5093248;28;20040;-67
2021/12/15 00:36:03;;;;;;;34.65;18.83;;;;;;;8.23;100.00;102825.66;5094402;28;20474;-66
2021/12/15 00:38:28;;;;;;;32.25;15.88;;;;;;;8.22;100.00;102827.44;5094201;28;20071;-67
2021/12/15 00:40:54;;;;;;;36.05;18.17;;;;;;;8.21;100.00;102824.94;5094387;28;20040;-67
2021/12/15 00:43:20;;;;;;;34.88;17.05;;;;;;;8.21;100.00;102823.09;5094315;28;20065;-67
2021/12/15 00:45:45;;;;;;;33.65;17.70;;;;;;;8.20;100.00;102826.75;5094416;28;20028;-67
2021/12/15 00:48:11;;;;;;;38.13;16.95;;;;;;;8.23;100.00;102817.66;5094346;28;20024;-67
2021/12/15 00:50:39;;;;;;;33.13;16.10;;;;;;;8.23;100.00;102820.34;5094297;28;20467;-67
2021/12/15 00:53:05;;;;;;;35.35;18.30;;;;;;;8.22;100.00;102816.81;5094124;28;20081;-67
2021/12/15 00:55:31;;;;;;;31.73;17.15;;;;;;;8.23;100.00;102817.66;5094103;28;20028;-66
2021/12/15 00:57:58;;;;;;;33.58;16.50;;;;;;;8.24;100.00;102822.00;5094070;28;20387;-67
2021/12/15 01:00:30;;;;;;;41.72;18.42;;;;;;;8.23;100.00;102820.34;5094087;28;20105;-67
2021/12/15 01:02:57;;;;;;;35.70;17.73;;;;;;;8.23;100.00;102820.34;5093806;28;20039;-67
2021/12/15 01:05:30;;;;;;;38.20;17.55;;;;;;;8.21;100.00;102811.63;5094002;28;20027;-66
2021/12/15 01:07:55;;;;;;;34.50;16.75;;;;;;;8.21;100.00;102820.44;5093873;28;20028;-67
2021/12/15 01:10:28;;;;;;;34.83;18.77;;;;;;;8.18;100.00;102817.22;5093765;28;20031;-67
2021/12/15 01:21:03;;;;;;;44.83;17.30;;;;;;;8.22;100.00;102823.94;5093775;28;20081;-67
2021/12/15 01:23:29;;;;;;;37.40;17.83;;;;;;;8.21;100.00;102823.09;5093642;28;20036;-68
2021/12/15 01:26:02;;;;;;;37.33;18.88;;;;;;;8.23;100.00;102825.66;5093735;28;20024;-68
2021/12/15 01:28:29;;;;;;;36.40;18.70;;;;;;;8.22;100.00;102827.44;5093608;28;20032;-67
2021/12/15 01:30:55;;;;;;;36.63;18.55;;;;;;;8.23;100.00;102828.31;5092382;28;20027;-67
2021/12/15 01:33:22;;;;;;;37.10;18.98;;;;;;;8.24;100.00;102829.97;5093372;28;20039;-67
2021/12/15 01:35:50;;;;;;;38.72;18.55;;;;;;;8.24;100.00;102827.31;5092890;28;20475;-67
2021/12/15 01:38:19;;;;;;;36.53;16.45;;;;;;;8.24;100.00;102832.63;5092574;28;20048;-67
2021/12/15 01:40:46;;;;;;;34.92;15.52;;;;;;;8.21;100.00;102833.75;5093154;28;20360;-67
2021/12/15 01:43:30;;;;;;;32.45;16.92;;;;;;;8.24;100.00;102830.81;5093422;28;20428;-67
2021/12/15 01:48:57;;;;;;;39.00;18.65;;;;;;;8.23;100.00;102829.13;5093601;28;20101;-67
2021/12/15 01:51:23;;;;;;;33.70;16.85;;;;;;;8.24;100.00;102836.13;5093145;28;20493;-67
2021/12/15 01:53:48;;;;;;;31.33;16.13;;;;;;;8.24;100.00;102827.31;5093165;28;20051;-68
2021/12/15 01:56:14;;;;;;;33.30;16.70;;;;;;;8.23;100.00;102834.47;5091440;28;20114;-67
2021/12/15 01:58:40;;;;;;;36.92;16.48;;;;;;;8.23;100.00;102838.94;5093212;28;20024;-67
2021/12/15 02:01:08;;;;;;;35.33;18.10;;;;;;;8.24;100.00;102837.94;5093208;28;20023;-66
2021/12/15 02:03:36;;;;;;;34.17;15.23;;;;;;;8.23;100.00;102836.28;5093037;28;20433;-67
2021/12/15 02:06:03;;;;;;;37.45;16.70;;;;;;;8.24;100.00;102845.94;5092685;28;20051;-67
2021/12/15 02:08:29;;;;;;;36.13;16.38;;;;;;;8.22;100.00;102843.38;5092935;28;20024;-66
2021/12/15 02:10:55;;;;;;;38.00;16.67;;;;;;;8.23;100.00;102841.59;5092880;28;20032;-69
2021/12/15 02:13:20;;;;;;;36.90;17.38;;;;;;;8.23;100.00;102850.41;5093044;28;20062;-67
2021/12/15 02:15:49;;;;;;;35.13;15.63;;;;;;;8.23;100.00;102854.88;5094694;28;20093;-67
2021/12/15 02:18:18;;;;;;;36.28;17.55;;;;;;;8.22;100.00;102853.19;5097206;28;20101;-69
2021/12/15 02:20:48;;;;;;;32.30;15.45;;;;;;;8.21;100.00;102841.72;5097194;28;20016;-66
2021/12/15 02:23:17;;;;;;;35.67;17.65;;;;;;;8.20;100.00;102850.69;5097179;28;20455;-67
2021/12/15 02:25:44;;;;;;;36.20;17.33;;;;;;;8.22;100.00;102856.69;5097120;28;20020;-67
2021/12/15 02:28:09;;;;;;;40.00;18.27;;;;;;;8.20;100.00;102853.34;5097001;28;20133;-68
2021/12/15 02:30:54;;;;;;;37.67;18.90;;;;;;;8.19;100.00;102845.47;5096877;28;20501;-66
2021/12/15 02:38:47;;;;;;;35.33;16.02;;;;;;;8.23;100.00;102855.72;5096652;28;20088;-66
2021/12/15 02:41:23;;;;;;;36.67;17.77;;;;;;;8.22;100.00;102851.34;5096333;28;20032;-66
2021/12/15 02:43:56;;;;;;;38.83;18.50;;;;;;;8.23;100.00;102853.06;5096712;28;20023;-67
2021/12/15 02:46:22;;;;;;;36.67;15.93;;;;;;;8.23;100.00;102852.22;5096757;28;20023;-69
2021/12/15 02:48:49;;;;;;;35.28;17.38;;;;;;;8.22;100.00;102848.69;5096733;28;20423;-66
2021/12/15 02:51:16;;;;;;;34.45;16.45;;;;;;;8.23;100.00;102845.09;5096587;28;20095;-68
2021/12/15 02:53:42;;;;;;;39.03;18.55;;;;;;;8.23;100.00;102846.91;5096608;28;20527;-66
2021/12/15 02:56:07;;;;;;;36.15;17.48;;;;;;;8.22;100.00;102848.69;5096381;28;20100;-66
2021/12/15 02:58:35;;;;;;;38.42;17.38;;;;;;;8.23;100.00;102850.41;5095670;28;20024;-66
2021/12/15 03:01:11;;;;;;;33.97;17.35;;;;;;;8.22;100.00;102851.34;5096303;28;20032;-66
2021/12/15 03:06:35;;;;;;;36.45;17.25;;;;;;;8.23;100.00;102847.75;5096382;28;20024;-69
2021/12/15 03:17:16;;;;;;;40.13;16.73;;;;;;;8.24;100.00;102849.41;5093756;28;20036;-68
2021/12/15 03:19:42;;;;;;;38.67;17.23;;;;;;;8.23;100.00;102847.75;5096062;28;20386;-68
2021/12/15 03:22:07;;;;;;;34.33;14.75;;;;;;;8.24;100.00;102838.78;5096078;28;20028;-68
2021/12/15 03:24:33;;;;;;;38.45;16.67;;;;;;;8.23;100.00;102839.78;5095979;28;20383;-68
2021/12/15 03:27:07;;;;;;;40.88;15.27;;;;;;;8.24;100.00;102841.44;5094760;28;20034;-68
2021/12/15 03:37:26;;;;;;;34.25;16.27;;;;;;;8.24;100.00;102836.13;5095514;28;20586;-68
2021/12/15 03:39:55;;;;;;;38.13;18.73;;;;;;;8.23;100.00;102837.13;5095661;28;20047;-68
2021/12/15 03:42:27;;;;;;;33.35;15.73;;;;;;;8.23;100.00;102836.28;5095305;28;20379;-67
2021/12/15 03:44:53;;;;;;;36.85;17.75;;;;;;;8.25;100.00;102844.94;5095365;28;20137;-66
2021/12/15 03:47:23;;;;;;;31.80;15.77;;;;;;;8.24;100.00;102843.28;5095471;28;20043;-67
2021/12/15 03:49:51;;;;;;;33.47;15.35;;;;;;;8.22;100.00;102843.38;5095427;28;20023;-66
2021/12/15 03:52:16;;;;;;;34.22;14.90;;;;;;;8.23;100.00;102844.25;5095448;28;20058;-67
2021/12/15 03:54:42;;;;;;;36.55;15.13;;;;;;;8.24;100.00;102849.41;5095271;28;20028;-66
2021/12/15 03:57:08;;;;;;;33.78;15.35;;;;;;;8.23;100.00;102853.06;5095224;28;20080;-67
2021/12/15 03:59:34;;;;;;;34.17;16.92;;;;;;;8.23;100.00;102855.72;5094996;28;20501;-66
2021/12/15 04:02:00;;;;;;;38.45;16.48;;;;;;;8.24;100.00;102859.22;5095022;28;20032;-66
2021/12/15 04:04:26;;;;;;;35.53;18.00;;;;;;;8.25;100.00;102858.22;5095155;28;20032;-67
2021/12/15 04:06:51;;;;;;;35.47;16.27;;;;;;;8.24;100.00;102862.72;5095222;28;20024;-67
2021/12/15 04:09:17;;;;;;;33.17;15.20;;;;;;;8.26;100.00;102862.59;5095102;28;20031;-68
2021/12/15 04:11:44;;;;;;;37.10;19.08;;;;;;;8.26;100.00;102860.78;5095223;28;20024;-67
2021/12/15 04:14:18;;;;;;;35.08;15.35;;;;;;;8.27;100.00;102870.41;5095032;28;20056;-67
2021/12/15 04:16:57;;;;;;;37.13;16.35;;;;;;;8.21;100.00;102851.50;5093668;28;20035;-67
2021/12/15 04:19:23;;;;;;;35.92;15.55;;;;;;;8.25;100.00;102866.22;5093649;28;20402;-67
2021/12/15 04:21:48;;;;;;;36.00;15.65;;;;;;;8.24;100.00;102865.38;5094683;28;20024;-66
2021/12/15 04:24:16;;;;;;;31.27;15.23;;;;;;;8.28;100.00;102866.81;5094795;28;20060;-66
2021/12/15 04:26:44;;;;;;;33.63;14.65;;;;;;;8.27;100.00;102857.13;5094720;28;20539;-67
2021/12/15 04:29:10;;;;;;;35.33;14.95;;;;;;;8.28;100.00;102863.31;5094747;28;20024;-67
2021/12/15 04:31:40;;;;;;;29.40;13.52;;;;;;;8.29;100.00;102870.31;5094162;28;20490;-67
2021/12/15 04:34:08;;;;;;;32.30;16.05;;;;;;;8.25;100.00;102856.44;5094244;28;20028;-66
2021/12/15 04:36:41;;;;;;;31.70;12.60;;;;;;;8.28;100.00;102871.28;5093979;28;20030;-67
2021/12/15 04:39:09;;;;;;;36.20;15.43;;;;;;;8.30;100.00;102864.00;5093718;28;20052;-67
2021/12/15 04:41:35;;;;;;;36.70;15.05;;;;;;;8.29;100.00;102871.13;5094507;28;20036;-67
2021/12/15 04:44:08;;;;;;;32.00;14.13;;;;;;;8.29;100.00;102871.13;5094227;28;20038;-66
2021/12/15 04:46:37;;;;;;;33.05;14.63;;;;;;;8.30;100.00;102874.63;5094144;28;20020;-67
2021/12/15 04:49:07;;;;;;;32.70;15.30;;;;;;;8.29;100.00;102878.28;5094352;28;20030;-66
2021/12/15 04:51:33;;;;;;;33.20;16.10;;;;;;;8.30;100.00;102870.16;5094294;28;20031;-67
2021/12/15 04:53:58;;;;;;;32.22;14.63;;;;;;;8.30;100.00;102883.44;5094219;28;20028;-67
2021/12/15 04:56:25;;;;;;;32.08;15.73;;;;;;;8.28;100.00;102872.13;5094121;28;20089;-67
2021/12/15 04:58:53;;;;;;;31.95;14.15;;;;;;;8.31;100.00;102877.16;5094197;28;20078;-67
2021/12/15 05:01:19;;;;;;;33.53;17.23;;;;;;;8.31;100.00;102881.66;5093527;28;20039;-66
2021/12/15 05:03:45;;;;;;;31.20;14.23;;;;;;;8.31;100.00;102881.66;5093823;28;20026;-66
2021/12/15 05:06:10;;;;;;;34.60;13.35;;;;;;;8.31;100.00;102890.47;5093959;28;20020;-66
2021/12/15 05:08:37;;;;;;;33.95;15.23;;;;;;;8.30;100.00;102882.59;5093943;28;20024;-66
2021/12/15 05:11:05;;;;;;;32.50;15.27;;;;;;;8.33;100.00;102887.66;5092657;28;20032;-69
2021/12/15 05:13:30;;;;;;;34.30;15.43;;;;;;;8.32;100.00;102880.66;5093903;28;20491;-66
2021/12/15 05:15:56;;;;;;;35.15;15.30;;;;;;;8.31;100.00;102882.50;5093689;28;20087;-67
2021/12/15 05:18:22;;;;;;;32.35;16.30;;;;;;;8.34;100.00;102890.19;5093719;28;20032;-66
2021/12/15 05:20:51;;;;;;;34.25;16.08;;;;;;;8.33;100.00;102893.84;5093735;28;20028;-67
2021/12/15 05:23:17;;;;;;;32.13;14.55;;;;;;;8.34;100.00;102890.19;5093769;28;20479;-67
2021/12/15 05:25:44;;;;;;;32.28;14.70;;;;;;;8.33;100.00;102899.16;5075662;28;20374;-66
2021/12/15 05:28:10;;;;;;;29.20;14.32;;;;;;;8.31;100.00;102898.44;5093670;28;20083;-67
2021/12/15 05:30:36;;;;;;;31.00;12.80;;;;;;;8.34;100.00;102892.00;5093462;28;20028;-67
2021/12/15 05:33:03;;;;;;;28.45;11.63;;;;;;;8.36;100.00;102900.72;5092926;28;20028;-67
2021/12/15 05:35:28;;;;;;;32.00;12.55;;;;;;;8.35;100.00;102899.00;5092770;28;20055;-66
2021/12/15 05:37:57;;;;;;;33.60;15.48;;;;;;;8.37;100.00;102904.22;5092910;28;20044;-67
2021/12/15 05:40:24;;;;;;;33.45;13.65;;;;;;;8.37;100.00;102906.88;5093120;28;20107;-67
2021/12/15 05:42:50;;;;;;;32.55;14.27;;;;;;;8.35;100.00;102897.19;5093240;28;20032;-66
2021/12/15 05:45:16;;;;;;;34.72;15.30;;;;;;;8.34;100.00;102900.00;5093170;28;20032;-67
2021/12/15 05:47:41;;;;;;;32.00;13.15;;;;;;;8.35;100.00;102896.34;5092920;28;20070;-66
2021/12/15 05:50:12;;;;;;;30.23;14.93;;;;;;;8.35;100.00;102899.84;5092455;28;20073;-67
2021/12/15 05:52:39;;;;;;;31.33;13.65;;;;;;;8.35;100.00;102899.00;5093318;28;20023;-66
2021/12/15 05:55:06;;;;;;;33.22;15.60;;;;;;;8.33;100.00;102901.81;5093313;28;20470;-66
2021/12/15 05:57:32;;;;;;;29.58;13.30;;;;;;;8.36;100.00;102898.06;5091991;28;20028;-67
2021/12/15 05:59:57;;;;;;;35.72;14.43;;;;;;;8.34;100.00;102892.84;5093145;28;20383;-67
2021/12/15 06:02:23;;;;;;;32.38;14.10;;;;;;;8.35;100.00;102901.66;5093303;28;20120;-66
2021/12/15 06:04:48;;;;;;;28.65;14.15;;;;;;;8.35;100.00;102904.31;5093103;28;20024;-67
2021/12/15 06:07:14;;;;;;;34.47;16.02;;;;;;;8.32;100.00;102896.63;5093150;28;20479;-66
2021/12/15 06:09:39;;;;;;;28.80;15.50;;;;;;;8.32;100.00;102896.63;5093047;28;20034;-67
2021/12/15 06:12:05;;;;;;;31.60;12.77;;;;;;;8.31;100.00;102909.06;5092889;28;20077;-67
2021/12/15 06:14:31;;;;;;;30.98;15.02;;;;;;;8.29;100.00;102904.84;5091852;28;20028;-67
2021/12/15 06:17:02;;;;;;;36.08;14.52;;;;;;;8.35;100.00;102905.16;5092898;28;20081;-66
2021/12/15 06:19:28;;;;;;;29.95;14.25;;;;;;;8.31;100.00;102906.41;5092897;28;20455;-67
2021/12/15 06:21:54;;;;;;;31.10;15.57;;;;;;;8.36;100.00;102911.34;5092989;28;20039;-67
2021/12/15 06:24:19;;;;;;;29.70;14.32;;;;;;;8.36;100.00;102916.66;5092911;28;20028;-66
2021/12/15 06:26:44;;;;;;;32.88;14.82;;;;;;;8.35;100.00;102920.28;5092833;28;20032;-67
2021/12/15 06:29:10;;;;;;;30.83;16.13;;;;;;;8.37;100.00;102925.47;5092859;28;20031;-67
2021/12/15 06:31:38;;;;;;;35.35;15.68;;;;;;;8.37;100.00;102921.00;5092882;28;20051;-67
2021/12/15 06:34:03;;;;;;;35.30;15.30;;;;;;;8.37;100.00;102921.00;5092996;28;20042;-66
2021/12/15 06:36:30;;;;;;;30.42;13.07;;;;;;;8.38;100.00;102927.16;5091439;28;20049;-67
2021/12/15 06:38:56;;;;;;;32.45;14.13;;;;;;;8.37;100.00;102921.00;5092653;28;20440;-66
2021/12/15 06:41:22;;;;;;;30.02;12.40;;;;;;;8.36;100.00;102919.31;5092765;28;20031;-67
2021/12/15 06:43:54;;;;;;;30.88;14.68;;;;;;;8.37;100.00;102928.97;5091444;28;20387;-67
2021/12/15 06:46:43;;;;;;;30.83;13.95;;;;;;;8.39;100.00;102928.84;5092684;28;20031;-67
2021/12/15 06:59:53;;;;;;;33.55;15.88;;;;;;;8.38;100.00;102935.13;5086601;28;20037;-67
2021/12/15 07:02:19;;;;;;;33.88;14.55;;;;;;;8.38;100.00;102929.81;5071551;28;20389;-67
2021/12/15 07:04:44;;;;;;;35.05;14.60;;;;;;;8.40;100.00;102939.38;5072662;28;20032;-66
2021/12/15 07:07:11;;;;;;;33.85;12.98;;;;;;;8.42;100.00;102936.59;5072786;28;20487;-67
2021/12/15 07:09:37;;;;;;;33.83;13.98;;;;;;;8.40;100.00;102936.72;5072948;28;20441;-66
2021/12/15 07:12:04;;;;;;;37.50;16.63;;;;;;;8.43;100.00;102946.25;5072944;28;20033;-67
2021/12/15 07:14:29;;;;;;;37.35;16.05;;;;;;;8.40;100.00;102941.19;5072865;28;20032;-67
2021/12/15 07:16:57;;;;;;;37.15;17.10;;;;;;;8.43;100.00;102949.75;5072876;28;20028;-66
2021/12/15 07:22:27;;;;;;;36.13;16.45;;;;;;;8.44;100.00;102955.94;5092503;28;20046;-67
2021/12/15 07:24:52;;;;;;;40.80;17.10;;;;;;;8.43;100.00;102954.22;5092251;28;20046;-67
2021/12/15 07:27:18;;;;;;;36.95;16.98;;;;;;;8.44;100.00;102953.28;5091990;28;20111;-67
2021/12/15 07:29:43;;;;;;;36.17;16.83;;;;;;;8.44;100.00;102959.41;5090838;28;20067;-67
2021/12/15 07:32:08;;;;;;;39.78;16.80;;;;;;;8.40;100.00;102946.50;5091904;28;20040;-67
2021/12/15 07:34:34;;;;;;;41.65;18.92;;;;;;;8.44;100.00;102958.59;5092032;28;20383;-67
2021/12/15 07:36:59;;;;;;;34.03;14.68;;;;;;;8.35;100.00;102944.19;5073803;28;20075;-67
2021/12/15 07:39:25;;;;;;;40.65;16.92;;;;;;;8.44;100.00;102955.94;5072600;28;20086;-67
2021/12/15 07:41:53;;;;;;;39.45;15.57;;;;;;;8.44;100.00;102963.91;5072484;28;20495;-67
2021/12/15 07:44:20;;;;;;;32.13;14.48;;;;;;;8.45;100.00;102957.59;5072299;28;20403;-67
2021/12/15 07:46:48;;;;;;;42.33;19.10;;;;;;;8.45;100.00;102957.59;5072416;28;20031;-67
2021/12/15 07:49:14;;;;;;;40.60;18.67;;;;;;;8.46;100.00;102969.91;5072153;28;20626;-67
2021/12/15 07:51:43;;;;;;;42.88;18.67;;;;;;;8.46;100.00;102965.47;5072049;28;20024;-67
2021/12/15 07:54:08;;;;;;;34.08;15.93;;;;;;;8.46;100.00;102964.59;5072208;28;20090;-67
2021/12/15 07:56:34;;;;;;;37.95;16.17;;;;;;;8.45;100.00;102970.91;5072012;28;20189;-67
2021/12/15 07:58:59;;;;;;;39.67;16.23;;;;;;;8.46;100.00;102965.47;5074552;28;20037;-67
2021/12/15 08:01:24;;;;;;;38.83;15.63;;;;;;;8.48;100.00;102970.63;5075091;28;20487;-67
2021/12/15 08:03:54;;;;;;;36.00;16.42;;;;;;;8.46;100.00;102965.47;5074924;28;20040;-66
2021/12/15 08:06:24;;;;;;;38.85;16.77;;;;;;;8.47;100.00;102971.63;5074710;28;20032;-67
2021/12/15 08:08:50;;;;;;;41.42;17.67;;;;;;;8.44;100.00;102963.91;5074795;28;20483;-67
2021/12/15 08:11:15;;;;;;;39.08;15.63;;;;;;;8.49;100.00;102969.69;5074792;28;20029;-67
2021/12/15 08:13:41;;;;;;;38.42;16.95;;;;;;;8.49;100.00;102975.84;5073777;28;20493;-67
2021/12/15 08:16:06;;;;;;;38.78;18.05;;;;;;;8.49;100.00;102983.81;5074643;28;20039;-67
2021/12/15 08:18:32;;;;;;;46.63;17.65;;;;;;;8.50;100.00;102985.50;5074694;28;20032;-66
2021/12/15 08:21:00;;;;;;;40.47;16.73;;;;;;;8.50;100.00;102988.16;5074545;28;20047;-67
2021/12/15 08:23:26;;;;;;;36.30;16.10;;;;;;;8.52;100.00;102975.56;5074185;28;20027;-67
2021/12/15 08:25:52;;;;;;;47.13;17.05;;;;;;;8.53;100.00;102977.25;5073994;28;20091;-67
2021/12/15 08:28:18;;;;;;;39.55;15.65;;;;;;;8.55;100.00;102977.13;5073624;28;20111;-66
2021/12/15 08:30:45;;;;;;;44.85;18.45;;;;;;;8.55;100.00;102985.94;5074267;28;20029;-67
2021/12/15 08:33:14;;;;;;;41.33;17.27;;;;;;;8.56;100.00;102987.59;5074216;28;20391;-67
2021/12/15 08:35:47;;;;;;;46.13;17.67;;;;;;;8.57;100.00;102985.81;5074325;28;20104;-67
2021/12/15 08:38:13;;;;;;;42.30;19.00;;;;;;;8.59;100.00;102986.50;5074016;28;20060;-67
2021/12/15 08:40:40;;;;;;;46.10;17.83;;;;;;;8.59;100.00;102989.16;5072879;28;20418;-67
2021/12/15 08:43:07;;;;;;;45.75;20.42;;;;;;;8.61;100.00;102989.06;5073595;28;20078;-67
2021/12/15 08:45:34;;;;;;;47.63;17.23;;;;;;;8.63;100.00;102989.78;5074142;28;20483;-67
2021/12/15 08:48:00;;;;;;;41.90;17.00;;;;;;;8.63;100.00;102987.94;5074127;28;20387;-67
2021/12/15 08:50:30;;;;;;;43.10;19.23;;;;;;;8.65;100.00;102982.50;5073979;28;20028;-67
2021/12/15 08:52:57;;;;;;;42.75;17.05;;;;;;;8.66;100.00;102984.19;5073641;28;20459;-67
2021/12/15 08:55:24;;;;;;;42.28;18.50;;;;;;;8.66;100.00;102990.34;5084563;28;20032;-67
2021/12/15 08:57:53;;;;;;;37.65;19.60;;;;;;;8.68;100.00;102980.41;5089621;28;20052;-70
2021/12/15 09:00:20;;;;;;;45.13;19.58;;;;;;;8.72;100.00;102988.97;5089910;28;20028;-67
2021/12/15 09:02:46;;;;;;;42.53;20.98;;;;;;;8.70;100.00;102985.63;5089872;28;20092;-66
2021/12/15 09:05:12;;;;;;;43.83;17.27;;;;;;;8.74;100.00;102995.00;5089109;28;20020;-66
2021/12/15 09:07:43;;;;;;;39.95;16.60;;;;;;;8.75;100.00;102992.22;5090081;28;20035;-66
2021/12/15 09:10:10;;;;;;;40.88;17.00;;;;;;;8.69;100.00;102983.91;5089616;28;20463;-67
2021/12/15 09:12:37;;;;;;;41.08;17.33;;;;;;;8.75;100.00;102991.34;5090029;28;20024;-68
2021/12/15 09:15:03;;;;;;;42.67;22.30;;;;;;;8.77;100.00;102992.91;5089751;28;20023;-67
2021/12/15 09:17:28;;;;;;;41.90;15.98;;;;;;;8.82;100.00;103002.31;5088407;28;20467;-68
2021/12/15 09:19:54;;;;;;;44.75;19.23;;;;;;;8.76;100.00;102999.22;5089760;28;20027;-68
2021/12/15 09:22:19;;;;;;;37.28;18.42;;;;;;;8.80;100.00;102994.47;5088292;28;20392;-69
2021/12/15 09:24:45;;;;;;;45.35;18.50;;;;;;;8.85;100.00;103010.03;5089190;28;20064;-68
2021/12/15 09:27:10;;;;;;;39.35;17.38;;;;;;;8.88;100.00;103007.13;5089448;28;20022;-67
2021/12/15 09:29:36;;;;;;;38.33;17.55;;;;;;;8.88;100.00;103018.63;5089523;28;20027;-67
2021/12/15 09:32:02;;;;;;;40.50;16.92;;;;;;;8.90;100.00;103013.16;5089587;28;20031;-67
2021/12/15 09:34:30;;;;;;;39.58;16.92;;;;;;;8.90;100.00;103021.97;5088678;28;20063;-69
2021/12/15 09:36:57;;;;;;;38.42;16.48;;;;;;;8.92;100.00;103020.03;5088705;28;20059;-67
2021/12/15 09:39:24;;;;;;;41.17;17.73;;;;;;;8.93;100.00;103020.88;5088962;28;20176;-68
2021/12/15 09:41:51;;;;;;;42.90;18.33;;;;;;;8.93;100.00;103015.53;5088946;28;20351;-67
2021/12/15 09:44:22;;;;;;;38.05;17.83;;;;;;;8.98;100.00;103026.63;5088491;28;20189;-67
2021/12/15 10:03:06;;;;;;;44.83;19.13;;;;;;;9.12;100.00;103026.31;5087650;28;20039;-67
2021/12/15 10:05:52;;;;;;;34.67;17.17;;;;;;;9.17;100.00;103025.91;5086767;28;20032;-66
2021/12/15 10:19:51;;;;;;;37.85;18.35;;;;;;;9.40;100.00;103026.53;5092888;28;20043;-68
2021/12/15 10:22:41;;;;;;;37.75;16.85;;;;;;;9.46;100.00;103031.34;5092894;28;20024;-67
2021/12/15 10:25:45;;;;;;;40.92;17.42;;;;;;;9.48;100.00;103036.50;5093074;28;20106;-67
2021/12/15 10:28:18;;;;;;;42.42;19.63;;;;;;;9.49;100.00;103032.88;5089417;28;20040;-67
2021/12/15 10:30:45;;;;;;;42.53;19.60;;;;;;;9.54;100.00;103033.31;5092918;28;20364;-67
2021/12/15 10:33:15;;;;;;;41.28;17.95;;;;;;;9.58;100.00;103034.72;5092854;28;20032;-67
2021/12/15 10:35:45;;;;;;;41.95;20.35;;;;;;;9.59;100.00;103033.75;5092484;28;20027;-67
2021/12/15 10:38:10;;;;;;;40.70;17.40;;;;;;;9.62;100.00;103034.31;5096474;28;20487;-67
2021/12/15 10:40:45;;;;;;;36.25;16.92;;;;;;;9.65;100.00;103028.72;5096747;28;20031;-67
2021/12/15 10:43:11;;;;;;;36.30;17.58;;;;;;;9.70;100.00;103032.81;5096641;28;20465;-67
2021/12/15 10:45:41;;;;;;;42.03;20.58;;;;;;;9.75;100.00;103030.56;5096714;28;20024;-67
2021/12/15 10:48:14;;;;;;;39.25;17.70;;;;;;;9.76;100.00;103034.91;5096149;28;20032;-67
2021/12/15 10:50:40;;;;;;;41.10;19.25;;;;;;;9.71;100.00;103018.50;5096555;28;20031;-67
2021/12/15 10:53:06;;;;;;;39.75;19.15;;;;;;;9.81;100.00;103033.50;5096649;28;20024;-67
2021/12/15 10:55:37;;;;;;;38.92;23.25;;;;;;;9.85;100.00;103034.06;5096239;28;20077;-67
2021/12/15 10:58:34;;;;;;;35.92;17.30;;;;;;;9.87;100.00;103037.44;5096291;28;20089;-67
2021/12/15 11:01:03;;;;;;;38.05;19.90;;;;;;;9.86;100.00;103044.59;5096345;28;20386;-67
2021/12/15 11:03:37;;;;;;;39.30;19.50;;;;;;;9.88;100.00;103033.81;5096671;28;20028;-67
2021/12/15 11:06:27;;;;;;;37.15;18.13;;;;;;;9.96;100.00;103031.28;5096178;28;20032;-67
2021/12/15 11:09:20;;;;;;;40.30;19.50;;;;;;;9.95;100.00;103029.59;5096215;28;20020;-67
2021/12/15 11:11:56;;;;;;;40.47;20.80;;;;;;;9.97;99.99;103032.97;5095723;28;20122;-67
2021/12/15 11:14:33;;;;;;;38.67;16.70;;;;;;;9.96;99.67;103036.63;5095382;28;20099;-67
2021/12/15 11:17:08;;;;;;;34.28;18.33;;;;;;;9.93;99.83;103036.91;5095933;28;20032;-67
2021/12/15 11:19:47;;;;;;;40.90;21.88;;;;;;;9.90;99.92;103025.66;5096141;28;20107;-67
2021/12/15 11:22:32;;;;;;;37.13;18.67;;;;;;;9.90;99.87;103034.50;5096017;28;20031;-67
2021/12/15 11:25:00;;;;;;;40.25;18.67;;;;;;;9.91;100.00;103032.69;5095909;28;20050;-67
2021/12/15 11:27:25;;;;;;;41.55;21.63;;;;;;;9.91;99.62;103024.69;5095929;28;20031;-67
2021/12/15 11:29:50;;;;;;;40.97;19.50;;;;;;;9.93;99.73;103026.25;5095896;28;20389;-67
2021/12/15 11:32:41;;;;;;;39.88;19.02;;;;;;;9.94;99.56;103021.75;5095909;28;20447;-67
2021/12/15 11:35:32;;;;;;;40.35;19.50;;;;;;;10.03;99.68;103027.09;5095343;28;20047;-67
2021/12/15 11:38:10;;;;;;;42.10;21.20;;;;;;;10.06;99.63;103024.16;5095659;28;20044;-67
2021/12/15 11:40:44;;;;;;;36.78;19.23;;;;;;;10.07;99.56;103019.66;5095318;28;20308;-67
2021/12/15 11:43:26;;;;;;;41.72;21.25;;;;;;;10.07;99.23;103022.31;5095626;28;20499;-68
2021/12/15 11:45:52;;;;;;;40.55;19.30;;;;;;;10.09;99.23;103023.03;5095591;28;20054;-66
2021/12/15 11:48:25;;;;;;;39.85;20.25;;;;;;;10.12;99.39;103027.25;5094223;28;20027;-67
2021/12/15 11:50:53;;;;;;;42.78;20.10;;;;;;;10.15;99.07;103024.28;5095499;28;20027;-67
2021/12/15 11:53:30;;;;;;;40.72;20.80;;;;;;;10.18;99.08;103019.50;5095525;28;20466;-67
2021/12/15 11:56:13;;;;;;;38.70;20.85;;;;;;;10.21;98.92;103021.88;5095142;28;20455;-67
2021/12/15 11:58:39;;;;;;;40.55;20.38;;;;;;;10.21;98.64;103015.72;5094804;28;20382;-68
2021/12/15 12:01:04;;;;;;;38.88;20.63;;;;;;;10.21;98.63;103007.72;5095392;28;20024;-67
2021/12/15 12:03:29;;;;;;;34.95;19.25;;;;;;;10.23;98.61;103011.94;5093797;28;20131;-67
2021/12/15 12:05:56;;;;;;;36.90;19.52;;;;;;;10.24;98.57;103002.97;5095058;28;20043;-67
2021/12/15 12:08:23;;;;;;;36.67;18.13;;;;;;;10.23;98.20;103008.44;5095139;28;20081;-67
2021/12/15 12:10:51;;;;;;;41.80;22.67;;;;;;;10.23;98.24;103013.75;5093554;28;20032;-67
2021/12/15 12:13:26;;;;;;;35.85;19.33;;;;;;;10.23;98.43;103009.25;5094602;28;20027;-67
2021/12/15 12:15:55;;;;;;;38.10;17.92;;;;;;;10.19;98.27;103001.69;5094861;28;20034;-67
2021/12/15 12:18:25;;;;;;;39.55;20.50;;;;;;;10.20;98.27;103006.88;5094964;28;20103;-67
2021/12/15 12:21:04;;;;;;;38.35;21.08;;;;;;;10.23;98.09;103008.44;5093535;28;20395;-67
2021/12/15 12:23:33;;;;;;;40.22;19.88;;;;;;;10.23;98.14;103011.09;5094861;28;20030;-67
2021/12/15 12:26:02;;;;;;;36.95;18.85;;;;;;;10.21;97.49;103007.72;5094788;28;20020;-67
2021/12/15 12:28:32;;;;;;;37.20;19.70;;;;;;;10.22;97.71;103009.41;5094583;28;20032;-67
2021/12/15 12:31:02;;;;;;;37.45;21.48;;;;;;;10.21;98.25;103002.38;5094698;28;20486;-68
2021/12/15 12:33:28;;;;;;;38.42;19.05;;;;;;;10.26;97.62;103000.97;5094655;28;20496;-67